Terminal Aerodrome Forecast
Issued by NWS Sioux Falls, SD

Home | Current Version | Previous Version | Text Only | Print | Product List | Glossary On
Versions: 1 2 3 4 5 6 7 8 9 10 11 12 13 14 15 16 17 18 19
000
FTUS43 KFSD 292328
TAFFSD
TAF
KFSD 292328Z 3000/3024 30004KT 6SM FU SKC
     FM300900 36004KT 6SM FU BKN100
     FM301500 08005KT 6SM FU BKN120=

USA.gov is the U.S. government's official web portal to all federal, state and local government web resources and services.